Main page
METAR-TAF:

METAR-TAF

Airports :

Taba International Airport

Taba, Egypt

latitude: 29-35-57N, longitude: 034-46-36E, elevation: 749 m

METAR: missing

Time: 15:56 (13:56 UTC)

Forecast

The report was made 2 hours and 56 minutes ago, at 11:00 UTC
Forecast valid from 22 at 12 UTC to 23 at 18 UTC
Wind 16 kt from the West/Northwest
Visibility 10 km or more
no clouds below 1500 m and no cumulonimbus
Becoming
from 22 at 21 UTC to 22 at 23 UTC
Wind 3 kt from variable directions
Becoming
from 23 at 06 UTC to 23 at 08 UTC
Wind 15 kt from the North/Northeast

TAF: HETB 221100Z 2212/2318 29016KT CAVOK BECMG 2221/2223 VRB03KT BECMG 2306/2308 02015KT

Weather observations and forecasts of more than 4000 airports (METAR and TAF reports).

The available stations are represented by yellow and red dots on the map.

Hover mouse over dot to see the name of the station.

Then click to see weather observations and forecasts.

To change the map : click on the green buttons with a black cross to zoom in, on the green button with a dash to zoom out, or on the green arrows for adjacent maps.


METAR-TAF: